sensor_id;sensor_type;location;lat;lon;timestamp;P1;durP1;ratioP1;P2;durP2;ratioP2
54665;SDS011;40566;50.006;36.180;2023-06-26T00:00:29;4.95;;;1.70;;
54665;SDS011;40566;50.006;36.180;2023-06-26T00:05:30;4.15;;;1.60;;
54665;SDS011;40566;50.006;36.180;2023-06-26T00:10:30;3.33;;;1.65;;
54665;SDS011;40566;50.006;36.180;2023-06-26T00:15:31;4.82;;;1.85;;
54665;SDS011;40566;50.006;36.180;2023-06-26T00:20:32;3.83;;;1.80;;
54665;SDS011;40566;50.006;36.180;2023-06-26T00:25:34;5.47;;;2.15;;
54665;SDS011;40566;50.006;36.180;2023-06-26T00:30:35;6.10;;;1.70;;
54665;SDS011;40566;50.006;36.180;2023-06-26T00:35:35;3.85;;;1.83;;
54665;SDS011;40566;50.006;36.180;2023-06-26T00:40:36;4.03;;;1.92;;
54665;SDS011;40566;50.006;36.180;2023-06-26T00:45:36;4.13;;;1.90;;
54665;SDS011;40566;50.006;36.180;2023-06-26T00:50:37;5.30;;;1.80;;
54665;SDS011;40566;50.006;36.180;2023-06-26T00:55:38;4.30;;;1.80;;
54665;SDS011;40566;50.006;36.180;2023-06-26T01:00:38;6.30;;;1.90;;
54665;SDS011;40566;50.006;36.180;2023-06-26T01:05:39;5.93;;;2.28;;
54665;SDS011;40566;50.006;36.180;2023-06-26T01:10:40;4.80;;;2.00;;
54665;SDS011;40566;50.006;36.180;2023-06-26T01:15:41;5.97;;;2.70;;
54665;SDS011;40566;50.006;36.180;2023-06-26T01:20:41;4.82;;;2.30;;
54665;SDS011;40566;50.006;36.180;2023-06-26T01:30:59;6.53;;;2.45;;
54665;SDS011;40566;50.006;36.180;2023-06-26T01:36:01;5.35;;;2.60;;
54665;SDS011;40566;50.006;36.180;2023-06-26T01:41:02;6.10;;;2.70;;
54665;SDS011;40566;50.006;36.180;2023-06-26T01:51:35;18.10;;;2.92;;
54665;SDS011;40566;50.006;36.180;2023-06-26T01:56:41;6.13;;;2.90;;
54665;SDS011;40566;50.006;36.180;2023-06-26T02:01:43;11.52;;;3.10;;
54665;SDS011;40566;50.006;36.180;2023-06-26T02:06:43;6.55;;;2.80;;
54665;SDS011;40566;50.006;36.180;2023-06-26T02:11:44;5.82;;;2.88;;
54665;SDS011;40566;50.006;36.180;2023-06-26T02:16:45;5.78;;;2.83;;
54665;SDS011;40566;50.006;36.180;2023-06-26T02:21:45;7.65;;;2.95;;
54665;SDS011;40566;50.006;36.180;2023-06-26T02:26:46;8.45;;;3.00;;
54665;SDS011;40566;50.006;36.180;2023-06-26T02:31:46;6.40;;;2.83;;
54665;SDS011;40566;50.006;36.180;2023-06-26T02:36:47;9.25;;;3.58;;
54665;SDS011;40566;50.006;36.180;2023-06-26T02:41:47;6.88;;;3.50;;
54665;SDS011;40566;50.006;36.180;2023-06-26T02:46:48;6.47;;;3.40;;
54665;SDS011;40566;50.006;36.180;2023-06-26T02:51:49;6.55;;;3.40;;
54665;SDS011;40566;50.006;36.180;2023-06-26T02:56:49;7.68;;;3.65;;
54665;SDS011;40566;50.006;36.180;2023-06-26T03:01:50;8.38;;;3.70;;
54665;SDS011;40566;50.006;36.180;2023-06-26T03:06:50;7.15;;;3.15;;
54665;SDS011;40566;50.006;36.180;2023-06-26T03:11:51;5.53;;;2.78;;
54665;SDS011;40566;50.006;36.180;2023-06-26T03:16:53;7.20;;;3.10;;
54665;SDS011;40566;50.006;36.180;2023-06-26T03:21:57;7.05;;;3.03;;
54665;SDS011;40566;50.006;36.180;2023-06-26T03:26:57;6.85;;;3.10;;
54665;SDS011;40566;50.006;36.180;2023-06-26T03:31:58;7.38;;;3.00;;
54665;SDS011;40566;50.006;36.180;2023-06-26T03:36:58;7.65;;;3.10;;
54665;SDS011;40566;50.006;36.180;2023-06-26T03:41:59;5.20;;;2.30;;
54665;SDS011;40566;50.006;36.180;2023-06-26T03:47:01;7.43;;;2.85;;
54665;SDS011;40566;50.006;36.180;2023-06-26T03:52:01;5.78;;;2.78;;
54665;SDS011;40566;50.006;36.180;2023-06-26T03:57:02;8.18;;;4.00;;
54665;SDS011;40566;50.006;36.180;2023-06-26T04:02:03;4.95;;;2.33;;
54665;SDS011;40566;50.006;36.180;2023-06-26T04:07:03;4.97;;;2.00;;
54665;SDS011;40566;50.006;36.180;2023-06-26T04:12:05;5.03;;;2.10;;
54665;SDS011;40566;50.006;36.180;2023-06-26T04:17:06;4.40;;;1.95;;
54665;SDS011;40566;50.006;36.180;2023-06-26T04:22:06;3.97;;;1.90;;
54665;SDS011;40566;50.006;36.180;2023-06-26T04:27:07;3.47;;;1.80;;
54665;SDS011;40566;50.006;36.180;2023-06-26T04:32:08;4.55;;;1.92;;
54665;SDS011;40566;50.006;36.180;2023-06-26T04:37:08;5.13;;;1.88;;
54665;SDS011;40566;50.006;36.180;2023-06-26T04:42:10;4.07;;;2.00;;
54665;SDS011;40566;50.006;36.180;2023-06-26T04:47:12;4.63;;;1.90;;
54665;SDS011;40566;50.006;36.180;2023-06-26T04:52:15;5.80;;;2.25;;
54665;SDS011;40566;50.006;36.180;2023-06-26T04:57:15;4.78;;;1.88;;
54665;SDS011;40566;50.006;36.180;2023-06-26T05:02:18;4.03;;;1.92;;
54665;SDS011;40566;50.006;36.180;2023-06-26T05:07:18;5.88;;;2.03;;
54665;SDS011;40566;50.006;36.180;2023-06-26T05:12:19;3.58;;;2.00;;
54665;SDS011;40566;50.006;36.180;2023-06-26T05:17:20;4.60;;;2.20;;
54665;SDS011;40566;50.006;36.180;2023-06-26T05:22:21;4.97;;;2.15;;
54665;SDS011;40566;50.006;36.180;2023-06-26T05:27:22;5.30;;;2.35;;
54665;SDS011;40566;50.006;36.180;2023-06-26T05:32:23;4.72;;;2.55;;
54665;SDS011;40566;50.006;36.180;2023-06-26T05:37:24;5.53;;;2.40;;
54665;SDS011;40566;50.006;36.180;2023-06-26T05:42:28;7.80;;;2.30;;
54665;SDS011;40566;50.006;36.180;2023-06-26T05:47:29;4.47;;;2.30;;
54665;SDS011;40566;50.006;36.180;2023-06-26T05:52:29;4.60;;;2.25;;
54665;SDS011;40566;50.006;36.180;2023-06-26T05:57:30;5.07;;;2.50;;
54665;SDS011;40566;50.006;36.180;2023-06-26T06:02:31;5.32;;;2.42;;
54665;SDS011;40566;50.006;36.180;2023-06-26T06:07:35;4.50;;;2.20;;
54665;SDS011;40566;50.006;36.180;2023-06-26T06:12:36;7.25;;;2.80;;
54665;SDS011;40566;50.006;36.180;2023-06-26T06:17:36;6.78;;;2.50;;
54665;SDS011;40566;50.006;36.180;2023-06-26T06:22:37;6.20;;;2.72;;
54665;SDS011;40566;50.006;36.180;2023-06-26T06:27:37;5.97;;;2.45;;
54665;SDS011;40566;50.006;36.180;2023-06-26T06:32:38;7.45;;;2.50;;
54665;SDS011;40566;50.006;36.180;2023-06-26T06:37:39;5.68;;;2.60;;
54665;SDS011;40566;50.006;36.180;2023-06-26T06:42:39;5.80;;;2.35;;
54665;SDS011;40566;50.006;36.180;2023-06-26T06:47:40;5.50;;;2.53;;
54665;SDS011;40566;50.006;36.180;2023-06-26T06:52:42;6.22;;;3.15;;
54665;SDS011;40566;50.006;36.180;2023-06-26T06:57:43;6.38;;;2.88;;
54665;SDS011;40566;50.006;36.180;2023-06-26T07:02:44;6.78;;;2.85;;
54665;SDS011;40566;50.006;36.180;2023-06-26T07:07:45;6.32;;;2.95;;
54665;SDS011;40566;50.006;36.180;2023-06-26T07:12:46;5.05;;;2.70;;
54665;SDS011;40566;50.006;36.180;2023-06-26T07:17:47;6.10;;;2.85;;
54665;SDS011;40566;50.006;36.180;2023-06-26T07:22:48;6.63;;;2.70;;
54665;SDS011;40566;50.006;36.180;2023-06-26T07:27:48;5.88;;;2.50;;
54665;SDS011;40566;50.006;36.180;2023-06-26T07:32:49;7.70;;;2.80;;
54665;SDS011;40566;50.006;36.180;2023-06-26T07:37:50;6.72;;;3.08;;
54665;SDS011;40566;50.006;36.180;2023-06-26T07:42:50;5.28;;;2.40;;
54665;SDS011;40566;50.006;36.180;2023-06-26T07:47:51;5.68;;;2.42;;
54665;SDS011;40566;50.006;36.180;2023-06-26T07:52:52;4.95;;;2.58;;
54665;SDS011;40566;50.006;36.180;2023-06-26T07:57:53;5.60;;;2.42;;
54665;SDS011;40566;50.006;36.180;2023-06-26T08:02:55;4.45;;;2.03;;
54665;SDS011;40566;50.006;36.180;2023-06-26T08:07:55;6.45;;;2.38;;
54665;SDS011;40566;50.006;36.180;2023-06-26T08:12:56;5.60;;;2.20;;
54665;SDS011;40566;50.006;36.180;2023-06-26T08:17:57;5.95;;;2.70;;
54665;SDS011;40566;50.006;36.180;2023-06-26T08:22:57;8.15;;;3.05;;
54665;SDS011;40566;50.006;36.180;2023-06-26T08:27:58;4.15;;;2.35;;
54665;SDS011;40566;50.006;36.180;2023-06-26T08:32:59;5.43;;;2.30;;
54665;SDS011;40566;50.006;36.180;2023-06-26T08:38:01;4.97;;;2.42;;
54665;SDS011;40566;50.006;36.180;2023-06-26T08:43:02;9.60;;;2.30;;
54665;SDS011;40566;50.006;36.180;2023-06-26T08:48:03;4.63;;;2.22;;
54665;SDS011;40566;50.006;36.180;2023-06-26T08:58:13;5.78;;;2.25;;
54665;SDS011;40566;50.006;36.180;2023-06-26T09:03:14;5.65;;;2.63;;
54665;SDS011;40566;50.006;36.180;2023-06-26T09:08:15;6.18;;;2.78;;
54665;SDS011;40566;50.006;36.180;2023-06-26T09:13:16;6.63;;;2.90;;
54665;SDS011;40566;50.006;36.180;2023-06-26T09:18:17;5.28;;;3.00;;
54665;SDS011;40566;50.006;36.180;2023-06-26T09:23:21;8.25;;;3.08;;
54665;SDS011;40566;50.006;36.180;2023-06-26T09:28:23;6.25;;;3.17;;
54665;SDS011;40566;50.006;36.180;2023-06-26T09:33:32;5.90;;;2.92;;
54665;SDS011;40566;50.006;36.180;2023-06-26T09:38:35;5.30;;;2.60;;
54665;SDS011;40566;50.006;36.180;2023-06-26T09:43:44;6.65;;;2.50;;
54665;SDS011;40566;50.006;36.180;2023-06-26T09:48:46;6.05;;;2.90;;
54665;SDS011;40566;50.006;36.180;2023-06-26T09:53:47;8.15;;;3.05;;
54665;SDS011;40566;50.006;36.180;2023-06-26T09:58:49;5.80;;;2.72;;
54665;SDS011;40566;50.006;36.180;2023-06-26T10:03:50;7.15;;;2.92;;
54665;SDS011;40566;50.006;36.180;2023-06-26T10:08:51;5.80;;;2.40;;
54665;SDS011;40566;50.006;36.180;2023-06-26T10:13:53;6.03;;;2.78;;
54665;SDS011;40566;50.006;36.180;2023-06-26T10:18:56;8.52;;;2.95;;
54665;SDS011;40566;50.006;36.180;2023-06-26T10:24:00;5.70;;;2.67;;
54665;SDS011;40566;50.006;36.180;2023-06-26T10:29:04;6.30;;;2.88;;
54665;SDS011;40566;50.006;36.180;2023-06-26T10:34:06;6.28;;;3.00;;
54665;SDS011;40566;50.006;36.180;2023-06-26T10:39:07;6.40;;;3.00;;
54665;SDS011;40566;50.006;36.180;2023-06-26T10:44:09;6.43;;;3.10;;
54665;SDS011;40566;50.006;36.180;2023-06-26T10:49:16;6.50;;;3.15;;
54665;SDS011;40566;50.006;36.180;2023-06-26T10:54:19;7.32;;;3.05;;
54665;SDS011;40566;50.006;36.180;2023-06-26T10:59:21;7.25;;;3.58;;
54665;SDS011;40566;50.006;36.180;2023-06-26T11:10:00;8.30;;;3.60;;
54665;SDS011;40566;50.006;36.180;2023-06-26T11:15:11;6.55;;;3.25;;
54665;SDS011;40566;50.006;36.180;2023-06-26T11:20:14;8.35;;;3.42;;
54665;SDS011;40566;50.006;36.180;2023-06-26T11:25:16;7.68;;;3.50;;
54665;SDS011;40566;50.006;36.180;2023-06-26T11:30:23;9.70;;;4.50;;
54665;SDS011;40566;50.006;36.180;2023-06-26T11:35:25;8.02;;;4.30;;
54665;SDS011;40566;50.006;36.180;2023-06-26T11:40:33;7.70;;;3.85;;
54665;SDS011;40566;50.006;36.180;2023-06-26T11:45:34;9.20;;;4.10;;
54665;SDS011;40566;50.006;36.180;2023-06-26T11:50:36;8.60;;;4.13;;
54665;SDS011;40566;50.006;36.180;2023-06-26T11:55:41;9.30;;;4.20;;
54665;SDS011;40566;50.006;36.180;2023-06-26T12:00:47;10.40;;;3.95;;
54665;SDS011;40566;50.006;36.180;2023-06-26T12:05:47;9.88;;;4.40;;
54665;SDS011;40566;50.006;36.180;2023-06-26T12:10:49;9.52;;;4.28;;
54665;SDS011;40566;50.006;36.180;2023-06-26T12:15:50;9.73;;;5.15;;
54665;SDS011;40566;50.006;36.180;2023-06-26T12:20:51;7.93;;;4.18;;
54665;SDS011;40566;50.006;36.180;2023-06-26T12:25:52;8.50;;;4.10;;
54665;SDS011;40566;50.006;36.180;2023-06-26T12:36:14;9.65;;;4.57;;
54665;SDS011;40566;50.006;36.180;2023-06-26T12:41:15;10.15;;;4.35;;
54665;SDS011;40566;50.006;36.180;2023-06-26T12:46:16;10.82;;;4.45;;
54665;SDS011;40566;50.006;36.180;2023-06-26T12:51:16;9.05;;;4.80;;
54665;SDS011;40566;50.006;36.180;2023-06-26T12:56:17;9.93;;;4.68;;
54665;SDS011;40566;50.006;36.180;2023-06-26T13:01:20;10.27;;;4.78;;
54665;SDS011;40566;50.006;36.180;2023-06-26T13:06:20;12.80;;;5.30;;
54665;SDS011;40566;50.006;36.180;2023-06-26T13:11:21;11.48;;;4.63;;
54665;SDS011;40566;50.006;36.180;2023-06-26T13:16:22;14.75;;;4.63;;
54665;SDS011;40566;50.006;36.180;2023-06-26T13:21:23;10.60;;;4.95;;
54665;SDS011;40566;50.006;36.180;2023-06-26T13:26:24;12.13;;;4.90;;
54665;SDS011;40566;50.006;36.180;2023-06-26T13:31:26;10.93;;;5.35;;
54665;SDS011;40566;50.006;36.180;2023-06-26T13:36:27;13.35;;;5.95;;
54665;SDS011;40566;50.006;36.180;2023-06-26T13:41:27;11.15;;;5.70;;
54665;SDS011;40566;50.006;36.180;2023-06-26T13:46:29;12.23;;;6.63;;
54665;SDS011;40566;50.006;36.180;2023-06-26T13:51:29;13.05;;;6.22;;
54665;SDS011;40566;50.006;36.180;2023-06-26T13:56:30;15.02;;;6.03;;
54665;SDS011;40566;50.006;36.180;2023-06-26T14:01:30;14.80;;;6.65;;
54665;SDS011;40566;50.006;36.180;2023-06-26T14:06:31;15.27;;;7.32;;
54665;SDS011;40566;50.006;36.180;2023-06-26T14:11:32;12.93;;;7.05;;
54665;SDS011;40566;50.006;36.180;2023-06-26T14:16:34;13.27;;;7.10;;
54665;SDS011;40566;50.006;36.180;2023-06-26T14:21:34;15.60;;;7.05;;
54665;SDS011;40566;50.006;36.180;2023-06-26T14:26:35;13.88;;;6.68;;
54665;SDS011;40566;50.006;36.180;2023-06-26T14:31:36;12.02;;;5.90;;
54665;SDS011;40566;50.006;36.180;2023-06-26T14:36:37;13.63;;;6.45;;
54665;SDS011;40566;50.006;36.180;2023-06-26T14:41:38;18.08;;;7.65;;
54665;SDS011;40566;50.006;36.180;2023-06-26T14:46:38;16.73;;;7.00;;
54665;SDS011;40566;50.006;36.180;2023-06-26T14:51:39;18.42;;;8.10;;
54665;SDS011;40566;50.006;36.180;2023-06-26T14:56:40;16.60;;;7.25;;
54665;SDS011;40566;50.006;36.180;2023-06-26T15:01:43;15.75;;;7.57;;
54665;SDS011;40566;50.006;36.180;2023-06-26T15:06:44;12.48;;;6.95;;
54665;SDS011;40566;50.006;36.180;2023-06-26T15:11:44;17.88;;;8.27;;
54665;SDS011;40566;50.006;36.180;2023-06-26T15:16:45;16.90;;;7.63;;
54665;SDS011;40566;50.006;36.180;2023-06-26T15:21:46;17.38;;;7.93;;
54665;SDS011;40566;50.006;36.180;2023-06-26T15:26:46;15.77;;;7.90;;
54665;SDS011;40566;50.006;36.180;2023-06-26T15:31:47;18.73;;;8.80;;
54665;SDS011;40566;50.006;36.180;2023-06-26T15:36:48;21.23;;;8.27;;
54665;SDS011;40566;50.006;36.180;2023-06-26T15:41:48;15.52;;;8.43;;
54665;SDS011;40566;50.006;36.180;2023-06-26T15:46:49;15.75;;;8.52;;
54665;SDS011;40566;50.006;36.180;2023-06-26T15:51:50;16.90;;;8.10;;
54665;SDS011;40566;50.006;36.180;2023-06-26T15:56:51;17.15;;;7.80;;
54665;SDS011;40566;50.006;36.180;2023-06-26T16:01:51;16.40;;;7.00;;
54665;SDS011;40566;50.006;36.180;2023-06-26T16:06:52;12.85;;;6.65;;
54665;SDS011;40566;50.006;36.180;2023-06-26T16:11:52;16.02;;;8.27;;
54665;SDS011;40566;50.006;36.180;2023-06-26T16:16:53;18.40;;;8.20;;
54665;SDS011;40566;50.006;36.180;2023-06-26T16:21:53;17.48;;;7.97;;
54665;SDS011;40566;50.006;36.180;2023-06-26T16:26:54;16.08;;;7.55;;
54665;SDS011;40566;50.006;36.180;2023-06-26T16:31:55;15.77;;;7.75;;
54665;SDS011;40566;50.006;36.180;2023-06-26T16:36:55;19.70;;;8.40;;
54665;SDS011;40566;50.006;36.180;2023-06-26T16:41:56;20.13;;;8.80;;
54665;SDS011;40566;50.006;36.180;2023-06-26T16:46:57;18.83;;;8.23;;
54665;SDS011;40566;50.006;36.180;2023-06-26T16:51:58;22.13;;;8.75;;
54665;SDS011;40566;50.006;36.180;2023-06-26T16:57:00;19.77;;;7.88;;
54665;SDS011;40566;50.006;36.180;2023-06-26T17:02:01;17.08;;;7.93;;
54665;SDS011;40566;50.006;36.180;2023-06-26T17:07:02;16.58;;;6.60;;
54665;SDS011;40566;50.006;36.180;2023-06-26T17:12:03;16.98;;;8.05;;
54665;SDS011;40566;50.006;36.180;2023-06-26T17:17:04;16.02;;;7.65;;
54665;SDS011;40566;50.006;36.180;2023-06-26T17:22:04;16.83;;;8.38;;
54665;SDS011;40566;50.006;36.180;2023-06-26T17:27:09;19.33;;;7.47;;
54665;SDS011;40566;50.006;36.180;2023-06-26T17:32:14;17.42;;;7.53;;
54665;SDS011;40566;50.006;36.180;2023-06-26T17:37:15;15.60;;;7.60;;
54665;SDS011;40566;50.006;36.180;2023-06-26T17:42:17;15.68;;;7.72;;
54665;SDS011;40566;50.006;36.180;2023-06-26T17:47:18;22.92;;;7.13;;
54665;SDS011;40566;50.006;36.180;2023-06-26T17:52:18;13.05;;;6.68;;
54665;SDS011;40566;50.006;36.180;2023-06-26T17:57:19;15.13;;;7.45;;
54665;SDS011;40566;50.006;36.180;2023-06-26T18:02:20;17.48;;;7.68;;
54665;SDS011;40566;50.006;36.180;2023-06-26T18:07:20;17.23;;;7.53;;
54665;SDS011;40566;50.006;36.180;2023-06-26T18:12:21;20.80;;;8.20;;
54665;SDS011;40566;50.006;36.180;2023-06-26T18:17:22;21.80;;;8.13;;
54665;SDS011;40566;50.006;36.180;2023-06-26T18:22:23;19.00;;;8.98;;
54665;SDS011;40566;50.006;36.180;2023-06-26T18:27:24;16.58;;;7.72;;
54665;SDS011;40566;50.006;36.180;2023-06-26T18:32:25;22.85;;;7.28;;
54665;SDS011;40566;50.006;36.180;2023-06-26T18:37:26;21.58;;;8.55;;
54665;SDS011;40566;50.006;36.180;2023-06-26T18:42:26;15.65;;;7.90;;
54665;SDS011;40566;50.006;36.180;2023-06-26T18:47:27;15.02;;;6.70;;
54665;SDS011;40566;50.006;36.180;2023-06-26T18:52:27;16.25;;;7.38;;
54665;SDS011;40566;50.006;36.180;2023-06-26T18:57:28;13.75;;;6.80;;
54665;SDS011;40566;50.006;36.180;2023-06-26T19:02:29;14.80;;;7.28;;
54665;SDS011;40566;50.006;36.180;2023-06-26T19:07:29;14.35;;;6.82;;
54665;SDS011;40566;50.006;36.180;2023-06-26T19:12:30;13.52;;;6.57;;
54665;SDS011;40566;50.006;36.180;2023-06-26T19:17:30;13.82;;;6.40;;
54665;SDS011;40566;50.006;36.180;2023-06-26T19:22:31;14.93;;;7.03;;
54665;SDS011;40566;50.006;36.180;2023-06-26T19:27:32;15.93;;;7.35;;
54665;SDS011;40566;50.006;36.180;2023-06-26T19:32:32;12.82;;;6.50;;
54665;SDS011;40566;50.006;36.180;2023-06-26T19:37:33;13.55;;;5.88;;
54665;SDS011;40566;50.006;36.180;2023-06-26T19:42:33;20.83;;;7.60;;
54665;SDS011;40566;50.006;36.180;2023-06-26T19:47:34;16.85;;;7.93;;
54665;SDS011;40566;50.006;36.180;2023-06-26T19:52:35;14.90;;;7.43;;
54665;SDS011;40566;50.006;36.180;2023-06-26T19:57:36;15.05;;;7.07;;
54665;SDS011;40566;50.006;36.180;2023-06-26T20:02:36;18.05;;;7.20;;
54665;SDS011;40566;50.006;36.180;2023-06-26T20:07:38;14.40;;;7.82;;
54665;SDS011;40566;50.006;36.180;2023-06-26T20:12:39;17.00;;;7.45;;
54665;SDS011;40566;50.006;36.180;2023-06-26T20:17:39;14.10;;;7.60;;
54665;SDS011;40566;50.006;36.180;2023-06-26T20:22:40;17.83;;;7.22;;
54665;SDS011;40566;50.006;36.180;2023-06-26T20:27:40;13.30;;;6.90;;
54665;SDS011;40566;50.006;36.180;2023-06-26T20:32:41;12.77;;;6.55;;
54665;SDS011;40566;50.006;36.180;2023-06-26T20:37:42;13.23;;;6.65;;
54665;SDS011;40566;50.006;36.180;2023-06-26T20:42:42;13.43;;;6.70;;
54665;SDS011;40566;50.006;36.180;2023-06-26T20:47:44;14.18;;;7.00;;
54665;SDS011;40566;50.006;36.180;2023-06-26T20:52:44;14.65;;;7.47;;
54665;SDS011;40566;50.006;36.180;2023-06-26T20:57:46;12.52;;;6.78;;
54665;SDS011;40566;50.006;36.180;2023-06-26T21:02:47;14.98;;;8.13;;
54665;SDS011;40566;50.006;36.180;2023-06-26T21:07:47;17.02;;;8.52;;
54665;SDS011;40566;50.006;36.180;2023-06-26T21:12:48;15.13;;;7.53;;
54665;SDS011;40566;50.006;36.180;2023-06-26T21:17:48;13.25;;;6.88;;
54665;SDS011;40566;50.006;36.180;2023-06-26T21:22:49;16.10;;;7.15;;
54665;SDS011;40566;50.006;36.180;2023-06-26T21:27:50;14.80;;;6.00;;
54665;SDS011;40566;50.006;36.180;2023-06-26T21:32:50;13.32;;;5.65;;
54665;SDS011;40566;50.006;36.180;2023-06-26T21:37:51;13.07;;;6.15;;
54665;SDS011;40566;50.006;36.180;2023-06-26T21:42:51;11.25;;;5.80;;
54665;SDS011;40566;50.006;36.180;2023-06-26T21:47:52;12.65;;;6.75;;
54665;SDS011;40566;50.006;36.180;2023-06-26T21:52:52;14.00;;;6.53;;
54665;SDS011;40566;50.006;36.180;2023-06-26T21:57:53;11.70;;;6.78;;
54665;SDS011;40566;50.006;36.180;2023-06-26T22:02:54;13.15;;;7.28;;
54665;SDS011;40566;50.006;36.180;2023-06-26T22:07:54;16.33;;;8.02;;
54665;SDS011;40566;50.006;36.180;2023-06-26T22:12:55;18.45;;;8.35;;
54665;SDS011;40566;50.006;36.180;2023-06-26T22:17:56;19.95;;;8.80;;
54665;SDS011;40566;50.006;36.180;2023-06-26T22:22:57;17.73;;;8.63;;
54665;SDS011;40566;50.006;36.180;2023-06-26T22:27:57;15.45;;;7.78;;
54665;SDS011;40566;50.006;36.180;2023-06-26T22:32:58;20.58;;;7.97;;
54665;SDS011;40566;50.006;36.180;2023-06-26T22:37:58;18.25;;;8.40;;
54665;SDS011;40566;50.006;36.180;2023-06-26T22:43:00;16.42;;;7.90;;
54665;SDS011;40566;50.006;36.180;2023-06-26T22:48:03;15.15;;;7.53;;
54665;SDS011;40566;50.006;36.180;2023-06-26T22:53:04;15.43;;;8.13;;
54665;SDS011;40566;50.006;36.180;2023-06-26T22:58:04;12.30;;;6.65;;
54665;SDS011;40566;50.006;36.180;2023-06-26T23:03:05;14.52;;;6.97;;
54665;SDS011;40566;50.006;36.180;2023-06-26T23:08:06;13.23;;;7.35;;
54665;SDS011;40566;50.006;36.180;2023-06-26T23:13:07;12.55;;;6.32;;
54665;SDS011;40566;50.006;36.180;2023-06-26T23:18:07;11.93;;;5.78;;
54665;SDS011;40566;50.006;36.180;2023-06-26T23:23:08;11.00;;;5.25;;
54665;SDS011;40566;50.006;36.180;2023-06-26T23:28:09;11.38;;;5.85;;
54665;SDS011;40566;50.006;36.180;2023-06-26T23:33:09;9.55;;;5.18;;
54665;SDS011;40566;50.006;36.180;2023-06-26T23:38:10;11.77;;;5.82;;
54665;SDS011;40566;50.006;36.180;2023-06-26T23:43:11;11.68;;;5.75;;
54665;SDS011;40566;50.006;36.180;2023-06-26T23:48:11;10.80;;;5.25;;
54665;SDS011;40566;50.006;36.180;2023-06-26T23:53:13;13.18;;;6.05;;
54665;SDS011;40566;50.006;36.180;2023-06-26T23:58:14;13.55;;;6.43;;
